Time;durP1;ratioP1;P1;durP2;ratioP2;P2;SDS_P1;SDS_P2;PMS_P1;PMS_P2;Temp;Humidity;BMP_temperature;BMP_pressure;BME280_temperature;BME280_humidity;BME280_pressure;Samples;Min_cycle;Max_cycle;Signal;HPM_P1;HPM_P2
2022/07/31 00:01:32;;;;;;;;;3.00;3.00;;;;;21.92;71.22;100899.72;5016944;28;45404;-73
2022/07/31 00:03:57;;;;;;;;;3.00;3.00;;;;;21.78;71.76;100889.22;5031718;28;45484;-73
2022/07/31 00:06:23;;;;;;;;;3.33;2.33;;;;;21.73;71.96;100888.41;5027500;28;46094;-73
2022/07/31 00:08:49;;;;;;;;;2.67;2.67;;;;;21.57;71.84;100885.91;5022625;28;45505;-74
2022/07/31 00:11:15;;;;;;;;;2.00;2.00;;;;;21.46;71.97;100874.47;5046029;28;45794;-73
2022/07/31 00:13:40;;;;;;;;;4.00;4.00;;;;;21.50;72.42;100888.63;5022107;28;46134;-73
2022/07/31 00:16:06;;;;;;;;;2.00;2.00;;;;;21.48;72.21;100885.09;5036073;28;45508;-73
2022/07/31 00:18:32;;;;;;;;;1.67;1.33;;;;;21.47;72.12;100883.31;5035786;28;45396;-73
2022/07/31 00:20:58;;;;;;;;;3.00;2.00;;;;;21.47;71.41;100876.25;5018151;28;45471;-73
2022/07/31 00:23:24;;;;;;;;;3.00;3.00;;;;;21.44;72.22;100868.31;5025270;28;45366;-73
2022/07/31 00:25:49;;;;;;;;;2.00;2.00;;;;;21.41;71.65;100870.97;5015529;28;45560;-74
2022/07/31 00:28:15;;;;;;;;;3.00;2.00;;;;;21.41;72.17;100873.63;5029282;28;45700;-73
2022/07/31 00:30:40;;;;;;;;;2.67;2.00;;;;;21.11;71.71;100821.63;5019483;28;45375;-73
2022/07/31 00:33:06;;;;;;;;;2.00;2.00;;;;;21.23;71.38;100832.16;5030908;28;45366;-73
2022/07/31 00:35:32;;;;;;;;;2.00;2.00;;;;;21.23;71.38;100830.38;5023882;28;45449;-73
2022/07/31 00:37:57;;;;;;;;;2.67;2.00;;;;;21.15;72.27;100823.34;5023152;28;45485;-73
2022/07/31 00:40:23;;;;;;;;;2.00;2.00;;;;;20.65;71.77;100744.16;5031888;28;45423;-73
2022/07/31 00:42:48;;;;;;;;;3.00;2.67;;;;;21.28;71.44;100850.72;5028697;28;45365;-73
2022/07/31 00:45:14;;;;;;;;;3.00;2.00;;;;;21.29;71.75;100849.81;5024065;28;45395;-73
2022/07/31 00:47:39;;;;;;;;;3.00;3.00;;;;;21.27;71.65;100849.84;5023142;28;45594;-73
2022/07/31 00:50:06;;;;;;;;;2.00;2.00;;;;;21.28;71.15;100846.28;5015682;28;45666;-73
2022/07/31 00:52:31;;;;;;;;;2.00;1.67;;;;;21.38;70.63;100849.72;5035100;28;45632;-73
2022/07/31 00:54:57;;;;;;;;;4.00;3.00;;;;;21.43;71.15;100840.84;5027094;28;45740;-73
2022/07/31 00:57:22;;;;;;;;;3.00;2.33;;;;;21.22;71.00;100807.34;5029206;28;45966;-72
2022/07/31 00:59:48;;;;;;;;;2.00;2.00;;;;;21.25;71.35;100833.91;5038917;28;45396;-73
2022/07/31 01:02:13;;;;;;;;;3.67;2.67;;;;;21.26;71.31;100827.69;5022733;28;45587;-73
2022/07/31 01:04:39;;;;;;;;;2.33;2.33;;;;;21.19;71.66;100825.13;5031791;28;46157;-73
2022/07/31 01:07:04;;;;;;;;;3.33;3.00;;;;;21.03;71.62;100811.09;5034093;28;45387;-73
2022/07/31 01:09:30;;;;;;;;;2.67;2.67;;;;;21.10;71.50;100825.19;5027267;28;45228;-73
2022/07/31 01:12:04;;;;;;;;;3.00;3.00;;;;;21.12;71.17;100826.06;5025931;28;45358;-73
2022/07/31 01:14:35;;;;;;;;;5.00;4.00;;;;;21.16;71.10;100823.34;5018734;28;45514;-73
2022/07/31 01:17:03;;;;;;;;;3.00;2.33;;;;;21.17;71.03;100822.47;5018485;28;45343;-73
2022/07/31 01:19:39;;;;;;;;;3.00;2.00;;;;;21.22;70.70;100817.97;5035489;28;45295;-73
2022/07/31 01:22:32;;;;;;;;;2.00;2.00;;;;;21.23;70.66;100819.75;5022508;28;45495;-73
2022/07/31 01:25:22;;;;;;;;;2.67;2.00;;;;;21.23;70.62;100811.78;5033293;28;46212;-73
2022/07/31 01:27:59;;;;;;;;;2.00;2.00;;;;;21.25;70.22;100809.13;5038121;28;45313;-73
2022/07/31 01:30:35;;;;;;;;;2.33;2.00;;;;;21.23;70.35;100805.59;5026996;28;45503;-73
2022/07/31 01:33:14;;;;;;;;;3.00;3.00;;;;;21.20;70.72;100813.59;5052866;28;45554;-73
2022/07/31 01:35:44;;;;;;;;;2.67;2.67;;;;;21.26;70.43;100817.06;5017967;28;45679;-73
2022/07/31 01:38:20;;;;;;;;;2.00;2.00;;;;;21.25;70.36;100807.34;5029057;28;45466;-73
2022/07/31 01:40:53;;;;;;;;;3.00;2.00;;;;;21.25;70.29;100804.69;5021788;28;45482;-73
2022/07/31 01:43:26;;;;;;;;;4.00;4.00;;;;;21.25;70.38;100798.50;5018788;28;45390;-73
2022/07/31 01:45:57;;;;;;;;;5.00;4.00;;;;;21.23;70.55;100803.81;5017949;28;45348;-73
2022/07/31 01:48:24;;;;;;;;;3.67;3.00;;;;;21.01;71.26;100779.22;5032797;28;45396;-73
2022/07/31 01:50:53;;;;;;;;;3.33;3.00;;;;;21.05;71.74;100802.22;5020356;28;45562;-73
2022/07/31 01:53:24;;;;;;;;;4.00;3.00;;;;;20.58;71.13;100717.63;5031100;28;45514;-73
2022/07/31 01:55:52;;;;;;;;;3.33;3.00;;;;;20.75;71.14;100766.19;5029626;28;45492;-73
2022/07/31 01:58:20;;;;;;;;;2.00;2.00;;;;;20.94;71.55;100805.84;5022008;28;45396;-73
2022/07/31 02:00:48;;;;;;;;;3.00;3.00;;;;;20.81;71.57;100774.09;5035237;28;45489;-73
2022/07/31 02:03:14;;;;;;;;;6.00;6.00;;;;;21.07;71.30;100794.25;5038003;28;45473;-73
2022/07/31 02:05:41;;;;;;;;;5.67;5.67;;;;;21.13;70.84;100793.28;5025114;28;45684;-73
2022/07/31 02:08:08;;;;;;;;;5.00;4.67;;;;;21.16;71.22;100799.44;5016827;28;45518;-73
2022/07/31 02:10:36;;;;;;;;;6.00;5.33;;;;;21.11;71.13;100787.09;5029762;28;45281;-73
2022/07/31 02:13:03;;;;;;;;;5.67;5.67;;;;;21.16;71.01;100785.28;5021566;28;45445;-73
2022/07/31 02:15:31;;;;;;;;;4.67;4.67;;;;;21.31;70.81;100803.75;5019438;28;45975;-74
2022/07/31 02:17:58;;;;;;;;;2.67;2.67;;;;;21.31;70.55;100813.47;5021319;28;45444;-73
2022/07/31 02:20:25;;;;;;;;;2.33;2.33;;;;;21.31;70.03;100803.75;5029603;28;45623;-73
2022/07/31 02:22:54;;;;;;;;;2.33;2.33;;;;;21.26;70.14;100803.78;5029862;28;45393;-73
2022/07/31 02:25:20;;;;;;;;;2.67;2.67;;;;;21.16;70.44;100785.28;5035444;28;45645;-73
2022/07/31 02:27:47;;;;;;;;;3.00;3.00;;;;;21.28;70.25;100810.84;5033250;28;45545;-73
2022/07/31 02:30:14;;;;;;;;;2.33;2.00;;;;;21.25;70.64;100802.03;5018126;28;45519;-73
2022/07/31 02:32:44;;;;;;;;;4.00;3.00;;;;;20.97;70.75;100768.63;5030452;28;45331;-73
2022/07/31 02:35:11;;;;;;;;;2.67;2.67;;;;;21.08;70.93;100805.72;5032965;28;45298;-73
2022/07/31 02:37:38;;;;;;;;;2.33;2.33;;;;;20.91;71.00;100797.91;5030346;28;45390;-73
2022/07/31 02:40:06;;;;;;;;;3.00;2.00;;;;;20.99;71.29;100812.00;5059420;28;45546;-72
2022/07/31 02:42:33;;;;;;;;;3.33;3.00;;;;;21.01;71.56;100807.56;5023445;28;45492;-74
2022/07/31 02:45:00;;;;;;;;;4.00;3.67;;;;;20.95;71.90;100816.47;5034968;28;46033;-73
2022/07/31 02:47:27;;;;;;;;;3.67;2.00;;;;;20.93;72.16;100814.69;5037061;28;45397;-73
2022/07/31 02:49:54;;;;;;;;;3.00;3.00;;;;;20.90;72.04;100810.31;5027174;28;45533;-73
2022/07/31 02:52:21;;;;;;;;;2.67;2.67;;;;;21.00;71.53;100819.06;5018044;28;45301;-73
2022/07/31 02:54:48;;;;;;;;;4.00;3.00;;;;;21.04;71.60;100820.81;5032637;28;45423;-73
2022/07/31 02:57:14;;;;;;;;;3.00;3.00;;;;;21.00;71.69;100804.03;5056007;28;46052;-73
2022/07/31 02:59:40;;;;;;;;;2.33;2.33;;;;;20.91;71.14;100779.31;5025768;28;45587;-73
2022/07/31 03:02:06;;;;;;;;;3.00;3.00;;;;;21.01;71.58;100786.34;5017246;28;45458;-73
2022/07/31 03:04:31;;;;;;;;;3.00;3.00;;;;;21.05;71.63;100812.84;5035648;28;45338;-73
2022/07/31 03:06:59;;;;;;;;;3.00;2.00;;;;;20.99;72.11;100810.25;5036826;28;45555;-73
2022/07/31 03:09:25;;;;;;;;;2.67;2.67;;;;;20.78;72.21;100787.38;5019528;28;45470;-73
2022/07/31 03:11:51;;;;;;;;;4.33;3.00;;;;;20.77;72.89;100801.56;5032144;28;45592;-73
2022/07/31 03:14:18;;;;;;;;;3.00;3.00;;;;;20.33;72.78;100736.38;5020072;28;45371;-73
2022/07/31 03:16:45;;;;;;;;;2.00;2.00;;;;;20.64;72.95;100803.44;5029858;28;45422;-73
2022/07/31 03:19:12;;;;;;;;;3.00;2.00;;;;;20.46;72.91;100777.88;5023834;28;45718;-73
2022/07/31 03:21:38;;;;;;;;;3.67;3.00;;;;;20.63;72.76;100806.09;5033360;28;46278;-73
2022/07/31 03:24:04;;;;;;;;;4.00;3.00;;;;;20.71;72.61;100809.59;5016644;28;45848;-73
2022/07/31 03:26:29;;;;;;;;;3.00;3.00;;;;;20.73;72.74;100797.19;5031881;28;45430;-73
2022/07/31 03:28:55;;;;;;;;;3.00;3.00;;;;;20.85;72.60;100798.84;5019294;28;45579;-73
2022/07/31 03:31:21;;;;;;;;;4.33;4.00;;;;;20.74;72.38;100774.16;5033489;28;45580;-73
2022/07/31 03:33:46;;;;;;;;;3.33;3.00;;;;;20.68;72.24;100767.13;5030845;28;46031;-73
2022/07/31 03:36:12;;;;;;;;;3.00;3.00;;;;;20.93;72.09;100804.06;5051643;28;45651;-73
2022/07/31 03:38:38;;;;;;;;;3.00;3.00;;;;;20.96;72.14;100802.28;5030069;28;45737;-73
2022/07/31 03:41:04;;;;;;;;;3.00;3.00;;;;;21.01;72.05;100796.94;5049022;28;45531;-73
2022/07/31 03:43:31;;;;;;;;;3.67;3.00;;;;;21.06;71.59;100803.09;5016371;28;46127;-73
2022/07/31 03:46:01;;;;;;;;;3.00;3.00;;;;;20.66;72.34;100747.69;5034006;28;45641;-73
2022/07/31 03:48:30;;;;;;;;;3.00;3.00;;;;;20.93;71.85;100789.06;5036203;28;45394;-73
2022/07/31 03:50:56;;;;;;;;;3.00;3.00;;;;;20.78;71.92;100749.34;5036478;28;45504;-73
2022/07/31 03:53:22;;;;;;;;;3.00;3.00;;;;;20.94;71.83;100774.88;5035459;28;46038;-73
2022/07/31 03:55:49;;;;;;;;;4.00;3.00;;;;;21.08;72.07;100806.59;5034978;28;45545;-73
2022/07/31 03:58:20;;;;;;;;;4.67;4.00;;;;;20.98;72.02;100804.94;5035736;28;45397;-73
2022/07/31 04:00:46;;;;;;;;;3.00;3.00;;;;;20.89;72.19;100800.59;5023993;28;45280;-73
2022/07/31 04:03:13;;;;;;;;;2.00;2.00;;;;;20.36;72.00;100708.97;5043272;28;45533;-73
2022/07/31 04:05:39;;;;;;;;;3.00;3.00;;;;;20.81;72.85;100800.66;5024674;28;45916;-73
2022/07/31 04:08:06;;;;;;;;;3.00;2.00;;;;;20.52;72.76;100752.19;5031179;28;45675;-73
2022/07/31 04:10:32;;;;;;;;;3.00;3.00;;;;;20.65;72.76;100770.69;5057978;28;45418;-73
2022/07/31 04:12:57;;;;;;;;;2.33;2.33;;;;;20.81;72.86;100790.03;5034984;28;46122;-73
2022/07/31 04:15:23;;;;;;;;;4.67;3.33;;;;;20.91;72.70;100789.94;5032677;28;45496;-73
2022/07/31 04:17:49;;;;;;;;;3.00;2.00;;;;;20.99;72.25;100785.44;5033537;28;45627;-73
2022/07/31 04:20:15;;;;;;;;;3.67;3.00;;;;;21.03;71.95;100787.19;5033342;28;45580;-73
2022/07/31 04:22:41;;;;;;;;;3.33;3.00;;;;;20.91;72.08;100771.34;5030296;28;46095;-73
2022/07/31 04:25:07;;;;;;;;;2.67;2.67;;;;;20.82;72.43;100754.59;5018785;28;45294;-73
2022/07/31 04:27:36;;;;;;;;;3.33;3.00;;;;;21.01;72.08;100783.69;5028655;28;45411;-73
2022/07/31 04:30:01;;;;;;;;;4.00;3.00;;;;;21.05;72.17;100788.06;5016082;28;45795;-74
2022/07/31 04:32:27;;;;;;;;;3.00;3.00;;;;;20.78;72.06;100739.59;5033233;28;46540;-73
2022/07/31 04:34:53;;;;;;;;;3.00;3.00;;;;;20.98;71.71;100773.94;5034849;28;45494;-73
2022/07/31 04:37:18;;;;;;;;;2.33;2.00;;;;;20.94;71.63;100766.03;5026037;28;45575;-73
2022/07/31 04:39:44;;;;;;;;;3.00;3.00;;;;;20.93;71.33;100769.56;5028017;28;45307;-73
2022/07/31 04:42:10;;;;;;;;;2.00;2.00;;;;;20.95;71.03;100771.31;5020553;28;45368;-73
2022/07/31 04:44:35;;;;;;;;;2.00;2.00;;;;;21.09;71.30;100778.25;5019263;28;45422;-73
2022/07/31 04:47:03;;;;;;;;;2.00;1.67;;;;;20.50;71.32;100674.38;5025773;28;45429;-74
2022/07/31 04:49:31;;;;;;;;;3.00;3.00;;;;;21.12;71.47;100788.88;5026783;28;45525;-73
2022/07/31 04:51:56;;;;;;;;;3.00;3.00;;;;;21.12;71.28;100789.75;5034219;28;45486;-73
2022/07/31 04:54:22;;;;;;;;;2.67;2.67;;;;;21.09;72.04;100789.78;5035044;28;45483;-73
2022/07/31 04:56:48;;;;;;;;;4.00;3.00;;;;;21.06;72.25;100784.50;5019245;28;45558;-73
2022/07/31 04:59:17;;;;;;;;;2.33;2.33;;;;;21.01;73.03;100784.53;5029827;28;45495;-73
2022/07/31 05:01:43;;;;;;;;;3.00;3.00;;;;;20.99;72.42;100780.13;5024856;28;46208;-73
2022/07/31 05:04:09;;;;;;;;;3.00;3.00;;;;;21.02;72.11;100799.56;5037208;28;45738;-73
2022/07/31 05:06:44;;;;;;;;;4.00;4.00;;;;;21.00;72.11;100787.22;5038215;28;45492;-74
2022/07/31 05:09:12;;;;;;;;;3.00;3.00;;;;;21.02;72.64;100794.25;5024930;28;45561;-73
2022/07/31 05:11:39;;;;;;;;;3.00;3.00;;;;;21.00;72.27;100797.84;5018555;28;46152;-73
2022/07/31 05:14:06;;;;;;;;;3.00;3.00;;;;;20.97;72.48;100792.53;5018712;28;45277;-73
2022/07/31 05:16:33;;;;;;;;;3.00;3.00;;;;;20.97;72.55;100797.84;5026992;28;45812;-74
2022/07/31 05:19:00;;;;;;;;;4.00;4.00;;;;;20.97;72.80;100789.88;5026132;28;45549;-73
2022/07/31 05:21:26;;;;;;;;;3.00;3.00;;;;;21.02;72.54;100783.63;5028934;28;46172;-73
2022/07/31 05:23:53;;;;;;;;;3.00;2.00;;;;;21.14;72.21;100793.25;5024647;28;45512;-73
2022/07/31 05:26:19;;;;;;;;;3.67;3.67;;;;;21.21;72.09;100796.75;5026517;28;45481;-73
2022/07/31 05:28:46;;;;;;;;;4.00;4.00;;;;;21.23;71.85;100795.84;5026083;28;45290;-73
2022/07/31 05:31:11;;;;;;;;;3.33;3.33;;;;;21.25;72.13;100803.81;5021079;28;46048;-73
2022/07/31 05:33:37;;;;;;;;;3.00;3.00;;;;;21.27;71.83;100799.34;5023005;28;45358;-72
2022/07/31 05:36:04;;;;;;;;;3.00;3.00;;;;;21.31;71.57;100805.50;5038499;28;45488;-73
2022/07/31 05:38:29;;;;;;;;;4.00;4.00;;;;;21.28;72.34;100813.50;5037122;28;45514;-73
2022/07/31 05:40:55;;;;;;;;;3.00;3.00;;;;;21.22;71.93;100803.81;5021395;28;45743;-73
2022/07/31 05:43:20;;;;;;;;;3.33;3.33;;;;;21.26;72.46;100808.22;5022655;28;45459;-73
2022/07/31 05:45:47;;;;;;;;;3.33;3.33;;;;;21.30;71.76;100798.44;5062077;28;45807;-73
2022/07/31 05:48:15;;;;;;;;;2.33;2.33;;;;;21.29;72.58;100805.53;5030299;28;45548;-73
2022/07/31 05:50:42;;;;;;;;;2.67;2.00;;;;;21.20;72.09;100779.91;5020634;28;45754;-73
2022/07/31 05:53:11;;;;;;;;;3.67;3.00;;;;;21.25;71.56;100778.09;5032884;28;45467;-73
2022/07/31 05:55:38;;;;;;;;;3.00;3.00;;;;;21.20;71.32;100758.66;5018163;28;45602;-73
2022/07/31 05:58:04;;;;;;;;;4.00;3.67;;;;;21.30;71.25;100766.56;5031503;28;45536;-73
2022/07/31 06:00:30;;;;;;;;;3.00;3.00;;;;;21.41;71.20;100780.63;5020372;28;46279;-73
2022/07/31 06:02:58;;;;;;;;;5.33;3.00;;;;;21.74;71.12;100810.38;5022487;28;45456;-73
2022/07/31 06:05:24;;;;;;;;;2.33;2.33;;;;;21.83;70.78;100808.50;5028376;28;45319;-73
2022/07/31 06:07:50;;;;;;;;;4.00;3.00;;;;;21.92;70.52;100802.16;5025580;28;45663;-73
2022/07/31 06:10:16;;;;;;;;;5.33;4.33;;;;;21.90;70.94;100796.00;5018954;28;45608;-73
2022/07/31 06:12:41;;;;;;;;;6.33;5.00;;;;;22.02;70.92;100813.56;5018047;28;45458;-73
2022/07/31 06:15:07;;;;;;;;;6.67;4.67;;;;;22.08;70.53;100809.97;5033141;28;45432;-73
2022/07/31 06:17:33;;;;;;;;;6.00;6.00;;;;;22.10;70.67;100808.16;5016898;28;45496;-73
2022/07/31 06:19:58;;;;;;;;;6.00;6.00;;;;;22.06;70.82;100809.97;5029379;28;46221;-73
2022/07/31 06:22:24;;;;;;;;;8.00;8.00;;;;;22.20;70.50;100807.13;5030386;28;45423;-73
2022/07/31 06:24:49;;;;;;;;;10.33;10.00;;;;;22.22;69.55;100784.94;5023196;28;45650;-73
2022/07/31 06:27:15;;;;;;;;;9.33;7.33;;;;;22.50;69.24;100818.28;5037383;28;45480;-73
2022/07/31 06:29:40;;;;;;;;;7.33;6.67;;;;;22.67;68.45;100802.06;5024163;28;45288;-74
2022/07/31 06:32:07;;;;;;;;;13.67;12.00;;;;;22.86;66.81;100800.84;5017737;28;45219;-74
2022/07/31 06:34:33;;;;;;;;;11.00;11.00;;;;;23.09;66.05;100811.13;5022313;28;45582;-74
2022/07/31 06:36:59;;;;;;;;;10.67;10.00;;;;;23.15;65.34;100812.81;5026875;28;45490;-74
2022/07/31 06:39:24;;;;;;;;;10.00;10.00;;;;;23.24;64.50;100807.31;5029963;28;46002;-73
2022/07/31 06:41:50;;;;;;;;;9.33;8.33;;;;;23.31;64.30;100790.28;5035995;28;45437;-74
2022/07/31 06:44:18;;;;;;;;;7.67;7.67;;;;;23.88;63.46;100813.22;5018154;28;45533;-74
2022/07/31 06:46:44;;;;;;;;;9.00;8.00;;;;;24.52;61.23;100810.94;5026330;28;45373;-74
2022/07/31 06:49:09;;;;;;;;;8.33;8.00;;;;;24.77;60.90;100816.56;5023797;28;46325;-74
2022/07/31 06:51:35;;;;;;;;;6.67;6.00;;;;;25.00;59.38;100824.00;5032959;28;45235;-74
2022/07/31 06:54:02;;;;;;;;;7.00;7.00;;;;;25.08;58.16;100804.22;5016771;28;45492;-73
2022/07/31 06:56:29;;;;;;;;;8.33;6.00;;;;;25.39;57.82;100820.38;5032673;28;45654;-74
2022/07/31 06:58:55;;;;;;;;;8.00;7.00;;;;;25.57;56.43;100819.88;5017009;28;46210;-74
2022/07/31 07:01:20;;;;;;;;;8.00;7.00;;;;;25.74;56.98;100824.72;5026015;28;45484;-73
2022/07/31 07:03:46;;;;;;;;;6.67;6.67;;;;;26.02;56.55;100820.41;5034331;28;45559;-74
2022/07/31 07:06:12;;;;;;;;;7.00;7.00;;;;;26.01;54.71;100776.72;5033532;28;45889;-74
2022/07/31 07:08:38;;;;;;;;;6.33;6.00;;;;;26.71;54.02;100820.97;5033058;28;45580;-74
2022/07/31 07:11:04;;;;;;;;;6.00;6.00;;;;;27.64;50.83;100824.94;5034873;28;45402;-74
2022/07/31 07:13:30;;;;;;;;;7.00;6.00;;;;;28.03;49.27;100818.16;5034815;28;45391;-74
2022/07/31 07:15:55;;;;;;;;;8.00;7.00;;;;;27.95;48.16;100795.19;5031927;28;45606;-74
2022/07/31 07:18:21;;;;;;;;;7.00;7.00;;;;;28.31;48.34;100826.91;5035555;28;46111;-74
2022/07/31 07:20:50;;;;;;;;;6.33;6.33;;;;;28.76;48.18;100825.13;5032803;28;45364;-75
2022/07/31 07:23:17;;;;;;;;;7.00;7.00;;;;;29.27;45.10;100840.03;5031353;28;45463;-75
2022/07/31 07:25:42;;;;;;;;;8.33;7.67;;;;;31.38;41.97;100826.50;5035352;28;45362;-75
2022/07/31 07:28:09;;;;;;;;;5.33;5.00;;;;;33.91;37.28;100802.94;5034976;28;45965;-75
2022/07/31 07:30:35;;;;;;;;;5.67;5.67;;;;;33.48;38.72;100849.81;5016421;28;45504;-75
2022/07/31 07:33:01;;;;;;;;;5.33;4.33;;;;;33.37;37.55;100852.28;5016341;28;45575;-75
2022/07/31 07:35:27;;;;;;;;;5.00;5.00;;;;;34.91;33.88;100828.97;5030551;28;45479;-75
2022/07/31 07:37:53;;;;;;;;;6.00;5.33;;;;;35.99;33.28;100845.94;5033617;28;46521;-75
2022/07/31 07:40:20;;;;;;;;;5.67;5.67;;;;;37.74;32.25;100846.34;5033327;28;45504;-74
2022/07/31 07:42:46;;;;;;;;;5.00;4.33;;;;;39.37;28.38;100841.03;5033642;28;45390;-74
2022/07/31 07:45:12;;;;;;;;;4.67;4.33;;;;;38.96;28.86;100848.19;5023801;28;45470;-75
2022/07/31 07:47:38;;;;;;;;;6.00;5.00;;;;;40.06;27.22;100842.31;5016703;28;46118;-75
2022/07/31 07:50:06;;;;;;;;;3.67;3.67;;;;;41.29;25.94;100852.94;5035046;28;45623;-75
2022/07/31 07:52:33;;;;;;;;;4.00;4.00;;;;;41.52;24.79;100847.09;5034439;28;45410;-75
2022/07/31 07:54:58;;;;;;;;;4.67;3.67;;;;;40.64;25.26;100816.97;5034361;28;45404;-74
2022/07/31 07:57:24;;;;;;;;;3.00;3.00;;;;;40.61;26.25;100841.94;5032718;28;45370;-75
2022/07/31 07:59:50;;;;;;;;;4.67;4.00;;;;;41.84;24.56;100841.25;5032223;28;45441;-76
2022/07/31 08:02:16;;;;;;;;;5.00;4.00;;;;;42.44;22.97;100845.44;5028064;28;45544;-75
2022/07/31 08:04:42;;;;;;;;;3.67;3.67;;;;;42.20;23.80;100848.75;5029700;28;45735;-75
2022/07/31 08:07:07;;;;;;;;;3.67;3.67;;;;;42.57;23.84;100842.38;5020955;28;46089;-75
2022/07/31 08:09:34;;;;;;;;;4.33;4.00;;;;;43.21;22.61;100812.91;5022631;28;45810;-76
2022/07/31 08:12:00;;;;;;;;;4.33;4.00;;;;;44.11;21.29;100834.63;5038298;28;45533;-75
2022/07/31 08:14:26;;;;;;;;;4.67;4.00;;;;;44.70;21.05;100845.66;5033257;28;45613;-75
2022/07/31 08:16:53;;;;;;;;;5.33;4.67;;;;;43.29;21.77;100845.97;5037340;28;45438;-75
2022/07/31 08:19:19;;;;;;;;;3.33;2.67;;;;;41.41;23.94;100818.00;5037091;28;45730;-75
2022/07/31 08:21:45;;;;;;;;;3.00;3.00;;;;;41.60;24.28;100829.91;5036058;28;45420;-76
2022/07/31 08:24:11;;;;;;;;;2.00;2.00;;;;;42.82;22.92;100811.38;5035873;28;45664;-75
2022/07/31 08:29:21;;;;;;;;;2.00;1.67;;;;;46.62;19.01;100835.59;5035516;28;45724;-76
2022/07/31 08:31:47;;;;;;;;;1.67;1.67;;;;;47.40;17.68;100839.13;5037424;28;45452;-77
2022/07/31 08:34:12;;;;;;;;;2.33;2.33;;;;;47.55;17.10;100839.16;5037553;28;45526;-73
2022/07/31 08:36:38;;;;;;;;;1.33;1.33;;;;;48.16;16.59;100838.94;5036124;28;45512;-74
2022/07/31 08:39:04;;;;;;;;;2.33;2.00;;;;;48.59;16.07;100836.28;5033932;28;45909;-76
2022/07/31 08:41:31;;;;;;;;;1.67;1.67;;;;;48.87;15.64;100829.09;5024806;28;45484;-77
2022/07/31 08:43:57;;;;;;;;;2.33;2.00;;;;;49.21;15.16;100830.25;5031745;28;45450;-75
2022/07/31 08:46:25;;;;;;;;;2.00;1.33;;;;;49.46;15.88;100830.69;5028431;28;46262;-74
2022/07/31 08:48:55;;;;;;;;;3.00;3.00;;;;;49.85;15.47;100832.03;5029440;28;45542;-76
2022/07/31 08:51:22;;;;;;;;;2.00;2.00;;;;;49.54;15.08;100814.72;5034214;28;45316;-74
2022/07/31 08:53:50;;;;;;;;;2.67;2.67;;;;;50.21;15.28;100837.31;5036543;28;45268;-76
2022/07/31 08:56:16;;;;;;;;;2.00;2.00;;;;;49.98;14.83;100839.53;5036367;28;45509;-76
2022/07/31 08:58:43;;;;;;;;;3.67;3.67;;;;;48.64;14.55;100812.66;5028756;28;45502;-75
2022/07/31 09:01:10;;;;;;;;;2.33;2.33;;;;;48.67;14.89;100831.69;5033288;28;45577;-76
2022/07/31 09:03:37;;;;;;;;;6.00;6.00;;;;;48.59;14.95;100797.47;5034399;28;45427;-76
2022/07/31 09:06:04;;;;;;;;;4.33;3.67;;;;;49.23;14.75;100829.00;5034417;28;45718;-76
2022/07/31 09:08:35;;;;;;;;;3.00;3.00;;;;;48.88;15.67;100828.06;5034146;28;45482;-76
2022/07/31 09:11:06;;;;;;;;;5.67;5.67;;;;;49.49;15.56;100822.81;5035472;28;45466;-75
2022/07/31 09:13:33;;;;;;;;;2.67;2.67;;;;;50.14;14.81;100828.09;5036053;28;45483;-77
2022/07/31 09:16:00;;;;;;;;;2.67;2.67;;;;;50.45;14.75;100826.72;5035636;28;46131;-75
2022/07/31 09:18:26;;;;;;;;;8.67;7.00;;;;;50.06;14.73;100831.88;5034607;28;45636;-76
2022/07/31 09:21:02;;;;;;;;;4.00;4.00;;;;;49.82;13.91;100824.94;5030748;28;45413;-76
2022/07/31 09:23:29;;;;;;;;;2.33;2.33;;;;;49.63;14.55;100826.53;5026721;28;45473;-77
2022/07/31 09:25:56;;;;;;;;;2.00;2.00;;;;;49.72;14.82;100827.22;5024604;28;45439;-76
2022/07/31 09:28:37;;;;;;;;;3.00;2.33;;;;;49.45;14.50;100793.75;5033430;28;45370;-77
2022/07/31 09:31:04;;;;;;;;;2.00;2.00;;;;;49.11;14.85;100825.09;5030032;28;46498;-75
2022/07/31 09:33:30;;;;;;;;;2.67;1.67;;;;;48.17;14.73;100759.47;5036798;28;45642;-75
2022/07/31 09:35:58;;;;;;;;;3.00;3.00;;;;;48.29;15.20;100826.34;5035693;28;46135;-76
2022/07/31 09:38:36;;;;;;;;;2.00;1.00;;;;;47.58;16.24;100819.41;5033456;28;45451;-77
2022/07/31 09:41:08;;;;;;;;;1.67;1.67;;;;;47.83;15.33;100818.25;5032120;28;45381;-77
2022/07/31 09:43:34;;;;;;;;;3.00;1.67;;;;;46.82;15.60;100648.03;5033594;28;45533;-80
2022/07/31 09:46:01;;;;;;;;;3.00;2.33;;;;;47.02;15.73;100818.91;5034905;28;46270;-76
2022/07/31 09:48:27;;;;;;;;;4.00;3.33;;;;;46.41;16.79;100756.09;5035386;28;45237;-80
2022/07/31 09:50:55;;;;;;;;;2.33;2.33;;;;;47.29;15.89;100820.22;5034480;28;46001;-76
2022/07/31 09:53:21;;;;;;;;;2.33;2.00;;;;;47.34;16.80;100816.91;5032332;28;45524;-76
2022/07/31 09:55:51;;;;;;;;;2.00;2.00;;;;;47.29;16.72;100811.06;5033737;28;46107;-77
2022/07/31 09:58:17;;;;;;;;;3.00;2.33;;;;;47.47;16.45;100807.94;5033665;28;45496;-76
2022/07/31 10:00:44;;;;;;;;;2.67;2.00;;;;;47.51;16.38;100814.78;5033106;28;45589;-77
2022/07/31 10:03:12;;;;;;;;;2.67;2.33;;;;;45.62;17.08;100813.22;5033716;28;45406;-78
2022/07/31 10:05:41;;;;;;;;;2.67;2.67;;;;;45.78;17.47;100771.78;5032357;28;45718;-77
2022/07/31 10:08:07;;;;;;;;;2.67;2.67;;;;;46.54;17.18;100805.28;5035570;28;45521;-77
2022/07/31 10:10:34;;;;;;;;;2.33;2.33;;;;;46.59;17.15;100796.41;5035255;28;45528;-76
2022/07/31 10:13:09;;;;;;;;;2.00;2.00;;;;;46.28;16.43;100802.81;5031785;28;45734;-75
2022/07/31 10:15:37;;;;;;;;;3.00;2.33;;;;;45.34;17.32;100799.84;5033073;28;45394;-78
2022/07/31 10:18:04;;;;;;;;;2.67;2.67;;;;;45.14;17.22;100792.97;5034783;28;45448;-78
2022/07/31 10:20:33;;;;;;;;;3.33;2.00;;;;;44.81;17.55;100790.19;5020599;28;45370;-79
2022/07/31 10:23:05;;;;;;;;;4.00;3.67;;;;;43.87;18.40;100787.56;5032487;28;45448;-78
2022/07/31 10:25:34;;;;;;;;;2.67;2.33;;;;;43.96;19.01;100790.34;5021862;28;45374;-77
2022/07/31 10:28:00;;;;;;;;;2.67;2.00;;;;;43.92;18.21;100778.78;5032003;28;45496;-78
2022/07/31 10:30:26;;;;;;;;;3.67;2.67;;;;;43.67;18.87;100773.19;5020284;28;45795;-78
2022/07/31 10:32:52;;;;;;;;;3.33;3.00;;;;;43.33;19.28;100744.78;5035412;28;45554;-78
2022/07/31 10:35:19;;;;;;;;;2.00;2.00;;;;;42.93;19.00;100763.56;5026691;28;45491;-77
2022/07/31 10:37:57;;;;;;;;;2.00;2.00;;;;;42.86;19.08;100776.22;5019614;28;45391;-77
2022/07/31 10:40:39;;;;;;;;;2.67;2.67;;;;;43.17;18.77;100779.34;5028195;28;46123;-76
2022/07/31 10:43:28;;;;;;;;;2.00;2.00;;;;;41.68;19.90;100777.94;5028846;28;45487;-76
2022/07/31 10:45:55;;;;;;;;;3.00;3.00;;;;;41.25;20.51;100766.53;5034370;28;46101;-77
2022/07/31 10:48:21;;;;;;;;;3.00;2.67;;;;;41.29;20.79;100765.22;5016576;28;46047;-77
2022/07/31 10:50:59;;;;;;;;;2.67;2.67;;;;;40.99;21.29;100757.16;5016357;28;45304;-76
2022/07/31 10:53:24;;;;;;;;;3.00;3.00;;;;;40.07;22.34;100752.91;5029765;28;45446;-77
2022/07/31 10:56:02;;;;;;;;;2.33;2.33;;;;;38.88;23.55;100760.59;5033296;28;45826;-76
2022/07/31 10:58:29;;;;;;;;;3.67;3.00;;;;;38.27;24.02;100738.50;5032378;28;45338;-78
2022/07/31 11:01:08;;;;;;;;;2.00;2.00;;;;;37.96;24.87;100749.19;5032247;28;45714;-77
2022/07/31 11:03:45;;;;;;;;;2.33;2.33;;;;;37.38;25.05;100651.22;5033262;28;45592;-79
2022/07/31 11:06:12;;;;;;;;;2.00;2.00;;;;;37.11;25.18;100757.78;5031012;28;46452;-77
2022/07/31 11:08:48;;;;;;;;;17.67;16.67;;;;;37.35;25.38;100735.94;5031868;28;45547;-77
2022/07/31 11:11:14;;;;;;;;;2.00;2.00;;;;;37.31;24.91;100699.91;5034865;28;45633;-77
2022/07/31 11:13:54;;;;;;;;;24.00;21.33;;;;;37.85;25.49;100743.78;5033331;28;45550;-77
2022/07/31 11:16:20;;;;;;;;;3.00;3.00;;;;;38.42;25.02;100728.13;5033565;28;46154;-77
2022/07/31 11:19:08;;;;;;;;;5.00;5.00;;;;;37.86;25.48;100737.31;5028319;28;45424;-77
2022/07/31 11:21:36;;;;;;;;;3.67;3.67;;;;;37.56;26.03;100725.16;5022493;28;45504;-77
2022/07/31 11:24:19;;;;;;;;;4.00;4.00;;;;;37.45;25.94;100733.34;5029996;28;45570;-76
2022/07/31 11:26:54;;;;;;;;;3.00;3.00;;;;;37.61;25.64;100733.88;5030730;28;46041;-77
2022/07/31 11:29:37;;;;;;;;;3.00;3.00;;;;;37.46;26.21;100735.06;5032114;28;45472;-77